createdAt,value
2022-09-06T00:00:38.453Z,22.97
2022-09-06T00:01:38.432Z,22.97
2022-09-06T00:02:38.443Z,22.99
2022-09-06T00:03:38.467Z,22.99
2022-09-06T00:04:38.486Z,22.99
2022-09-06T00:05:38.383Z,22.92
2022-09-06T00:06:38.374Z,22.87
2022-09-06T00:07:38.372Z,22.86
2022-09-06T00:08:38.383Z,22.78
2022-09-06T00:09:38.327Z,22.80
2022-09-06T00:10:38.314Z,22.74
2022-09-06T00:11:38.297Z,22.77
2022-09-06T00:12:38.286Z,22.74
2022-09-06T00:13:38.295Z,22.77
2022-09-06T00:14:38.266Z,22.72
2022-09-06T00:15:38.309Z,22.75
2022-09-06T00:16:38.236Z,22.74
2022-09-06T00:17:38.216Z,22.77
2022-09-06T00:18:38.230Z,22.82
2022-09-06T00:19:38.187Z,22.86
2022-09-06T00:20:38.187Z,22.86
2022-09-06T00:21:38.158Z,22.84
2022-09-06T00:22:38.148Z,22.84
2022-09-06T00:23:38.168Z,22.83
2022-09-06T00:24:38.127Z,22.78
2022-09-06T00:25:38.107Z,22.80
2022-09-06T00:26:38.097Z,22.71
2022-09-06T00:27:38.070Z,22.69
2022-09-06T00:28:38.089Z,22.67
2022-09-06T00:29:38.050Z,22.64
2022-09-06T00:30:38.042Z,22.57
2022-09-06T00:31:38.030Z,22.54
2022-09-06T00:32:38.010Z,22.46
2022-09-06T00:33:38.019Z,22.37
2022-09-06T00:34:37.994Z,22.29
2022-09-06T00:35:37.961Z,22.31
2022-09-06T00:36:37.973Z,22.29
2022-09-06T00:37:37.942Z,22.28
2022-09-06T00:38:37.952Z,22.23
2022-09-06T00:39:37.970Z,22.23
2022-09-06T00:40:37.903Z,22.22
2022-09-06T00:41:37.883Z,22.20
2022-09-06T00:42:37.874Z,22.22
2022-09-06T00:43:37.881Z,22.14
2022-09-06T00:44:37.854Z,22.14
2022-09-06T00:45:37.835Z,22.09
2022-09-06T00:46:37.891Z,22.13
2022-09-06T00:47:37.805Z,22.12
2022-09-06T00:48:37.837Z,22.13
2022-09-06T00:49:37.782Z,22.13
2022-09-06T00:50:37.773Z,22.14
2022-09-06T00:51:37.746Z,22.12
2022-09-06T00:52:37.745Z,22.10
2022-09-06T00:53:37.745Z,22.06
2022-09-06T00:54:37.717Z,22.04
2022-09-06T00:55:37.699Z,22.07
2022-09-06T00:56:37.705Z,22.06
2022-09-06T00:57:37.667Z,22.04
2022-09-06T00:58:37.687Z,22.06
2022-09-06T00:59:37.644Z,22.07
2022-09-06T01:00:37.637Z,22.07
2022-09-06T01:01:37.705Z,22.07
2022-09-06T01:02:37.721Z,22.07
2022-09-06T01:03:37.610Z,22.02
2022-09-06T01:04:37.580Z,21.97
2022-09-06T01:05:37.570Z,21.91
2022-09-06T01:06:37.557Z,21.94
2022-09-06T01:07:37.540Z,21.95
2022-09-06T01:08:37.551Z,21.94
2022-09-06T01:09:37.511Z,21.90
2022-09-06T01:10:37.501Z,21.83
2022-09-06T01:11:37.480Z,21.79
2022-09-06T01:12:37.481Z,21.75
2022-09-06T01:13:37.485Z,21.72
2022-09-06T01:14:37.442Z,21.59
2022-09-06T01:15:37.506Z,21.54
2022-09-06T01:16:37.432Z,21.45
2022-09-06T01:17:37.403Z,21.44
2022-09-06T01:18:37.433Z,21.42
2022-09-06T01:19:37.422Z,21.41
2022-09-06T01:20:37.374Z,21.34
2022-09-06T01:21:37.352Z,21.30
2022-09-06T01:22:37.343Z,21.20
2022-09-06T01:23:37.344Z,21.09
2022-09-06T01:24:37.315Z,20.95
2022-09-06T01:25:37.295Z,20.83
2022-09-06T01:26:37.286Z,20.80
2022-09-06T01:27:37.312Z,20.74
2022-09-06T01:28:37.263Z,20.64
2022-09-06T01:29:37.236Z,20.53
2022-09-06T01:30:37.267Z,20.35
2022-09-06T01:31:37.216Z,20.24
2022-09-06T01:32:37.237Z,20.18
2022-09-06T01:33:37.187Z,20.10
2022-09-06T01:34:37.177Z,20.05
2022-09-06T01:35:37.167Z,19.95
2022-09-06T01:36:45.776Z,19.90
2022-09-06T01:37:38.167Z,19.88
2022-09-06T01:38:37.149Z,19.87
2022-09-06T01:39:37.181Z,19.84
2022-09-06T01:40:37.099Z,19.83
2022-09-06T01:41:37.079Z,19.80
2022-09-06T01:42:37.097Z,19.72
2022-09-06T01:43:37.080Z,19.61
2022-09-06T01:44:37.049Z,19.66
2022-09-06T01:45:37.020Z,19.70
2022-09-06T01:46:37.082Z,19.66
2022-09-06T01:47:36.997Z,19.66
2022-09-06T01:48:37.029Z,19.65
2022-09-06T01:49:36.996Z,19.69
2022-09-06T01:50:36.960Z,19.68
2022-09-06T01:51:36.947Z,19.65
2022-09-06T01:52:36.931Z,19.61
2022-09-06T01:53:36.943Z,19.61
2022-09-06T01:54:36.902Z,19.57
2022-09-06T01:55:36.895Z,19.51
2022-09-06T01:56:36.885Z,19.46
2022-09-06T01:57:36.864Z,19.47
2022-09-06T01:58:36.872Z,19.50
2022-09-06T01:59:36.837Z,19.46
2022-09-06T02:00:36.832Z,19.38
2022-09-06T02:01:36.878Z,19.42
2022-09-06T02:02:36.878Z,19.40
2022-09-06T02:03:36.819Z,19.43
2022-09-06T02:04:36.797Z,19.47
2022-09-06T02:05:36.754Z,19.50
2022-09-06T02:06:36.745Z,19.47
2022-09-06T02:07:36.731Z,19.54
2022-09-06T02:08:36.751Z,19.55
2022-09-06T02:09:36.716Z,19.55
2022-09-06T02:10:36.693Z,19.55
2022-09-06T02:11:36.675Z,19.55
2022-09-06T02:12:36.687Z,19.58
2022-09-06T02:13:36.647Z,19.58
2022-09-06T02:14:36.641Z,19.57
2022-09-06T02:15:36.617Z,19.58
2022-09-06T02:16:36.646Z,19.58
2022-09-06T02:17:36.599Z,19.54
2022-09-06T02:18:36.618Z,19.57
2022-09-06T02:19:36.564Z,19.58
2022-09-06T02:20:36.548Z,19.61
2022-09-06T02:21:36.537Z,19.57
2022-09-06T02:22:36.549Z,19.58
2022-09-06T02:23:36.509Z,19.60
2022-09-06T02:24:36.507Z,19.57
2022-09-06T02:25:36.487Z,19.53
2022-09-06T02:26:36.479Z,19.50
2022-09-06T02:27:36.630Z,19.54
2022-09-06T02:28:36.474Z,19.53
2022-09-06T02:29:36.450Z,19.57
2022-09-06T02:30:36.518Z,19.55
2022-09-06T02:31:36.400Z,19.57
2022-09-06T02:32:36.418Z,19.55
2022-09-06T02:33:36.381Z,19.51
2022-09-06T02:34:36.361Z,19.50
2022-09-06T02:35:36.369Z,19.51
2022-09-06T02:36:36.332Z,19.50
2022-09-06T02:37:36.343Z,19.51
2022-09-06T02:38:36.313Z,19.51
2022-09-06T02:39:36.348Z,19.51
2022-09-06T02:40:36.453Z,19.47
2022-09-06T02:41:36.263Z,19.46
2022-09-06T02:42:36.298Z,19.43
2022-09-06T02:43:36.244Z,19.46
2022-09-06T02:44:36.236Z,19.43
2022-09-06T02:45:36.312Z,19.38
2022-09-06T02:46:36.202Z,19.36
2022-09-06T02:47:36.220Z,19.35
2022-09-06T02:48:36.175Z,19.35
2022-09-06T02:49:36.155Z,19.36
2022-09-06T02:50:36.181Z,19.38
2022-09-06T02:51:36.135Z,19.39
2022-09-06T02:52:36.144Z,19.40
2022-09-06T02:53:36.108Z,19.40
2022-09-06T02:54:36.097Z,19.43
2022-09-06T02:55:36.078Z,19.43
2022-09-06T02:56:36.067Z,19.46
2022-09-06T02:57:36.077Z,19.42
2022-09-06T02:58:36.037Z,19.42
2022-09-06T02:59:36.024Z,19.42
2022-09-06T03:00:36.017Z,19.46
2022-09-06T03:01:36.075Z,19.43
2022-09-06T03:02:36.083Z,19.42
2022-09-06T03:03:35.969Z,19.42
2022-09-06T03:04:35.959Z,19.40
2022-09-06T03:05:35.941Z,19.47
2022-09-06T03:06:35.932Z,19.46
2022-09-06T03:07:35.941Z,19.47
2022-09-06T03:08:35.899Z,19.48
2022-09-06T03:09:35.889Z,19.47
2022-09-06T03:10:35.880Z,19.50
2022-09-06T03:11:35.863Z,19.51
2022-09-06T03:12:35.911Z,19.47
2022-09-06T03:13:35.864Z,19.47
2022-09-06T03:14:35.821Z,19.47
2022-09-06T03:15:35.809Z,19.47
2022-09-06T03:16:35.843Z,19.42
2022-09-06T03:17:35.802Z,19.42
2022-09-06T03:18:35.776Z,19.42
2022-09-06T03:19:35.754Z,19.43
2022-09-06T03:20:37.196Z,19.40
2022-09-06T03:21:35.734Z,19.43
2022-09-06T03:22:35.746Z,19.46
2022-09-06T03:23:35.706Z,19.43
2022-09-06T03:24:35.685Z,19.43
2022-09-06T03:25:35.676Z,19.42
2022-09-06T03:26:35.665Z,19.46
2022-09-06T03:27:35.673Z,19.43
2022-09-06T03:28:35.634Z,19.40
2022-09-06T03:29:35.641Z,19.42
2022-09-06T03:30:35.618Z,19.47
2022-09-06T03:31:35.586Z,19.39
2022-09-06T03:32:35.597Z,19.38
2022-09-06T03:33:35.555Z,19.38
2022-09-06T03:34:35.548Z,19.35
2022-09-06T03:35:35.541Z,19.36
2022-09-06T03:36:35.525Z,19.32
2022-09-06T03:37:35.540Z,19.32
2022-09-06T03:38:35.496Z,19.35
2022-09-06T03:39:35.510Z,19.33
2022-09-06T03:40:35.475Z,19.36
2022-09-06T03:41:35.447Z,19.38
2022-09-06T03:42:35.477Z,19.39
2022-09-06T03:43:35.449Z,19.46
2022-09-06T03:44:35.415Z,19.48
2022-09-06T03:45:35.448Z,19.47
2022-09-06T03:46:35.388Z,19.46
2022-09-06T03:47:35.429Z,19.48
2022-09-06T03:48:35.359Z,19.46
2022-09-06T03:49:35.339Z,19.46
2022-09-06T03:50:35.338Z,19.47
2022-09-06T03:51:35.309Z,19.48
2022-09-06T03:52:35.330Z,19.51
2022-09-06T03:53:35.290Z,19.50
2022-09-06T03:54:35.301Z,19.54
2022-09-06T03:55:35.261Z,19.54
2022-09-06T03:56:35.249Z,19.54
2022-09-06T03:57:35.261Z,19.54
2022-09-06T03:58:35.229Z,19.53
2022-09-06T03:59:35.215Z,19.53
2022-09-06T04:00:35.192Z,19.53
2022-09-06T04:01:35.270Z,19.57
2022-09-06T04:02:35.270Z,19.57
2022-09-06T04:03:35.179Z,19.60
2022-09-06T04:04:35.134Z,19.58
2022-09-06T04:05:35.141Z,19.58
2022-09-06T04:06:35.113Z,19.60
2022-09-06T04:07:35.137Z,19.60
2022-09-06T04:08:35.089Z,19.58
2022-09-06T04:09:35.082Z,19.58
2022-09-06T04:10:35.056Z,19.57
2022-09-06T04:11:35.063Z,19.53
2022-09-06T04:12:35.055Z,19.50
2022-09-06T04:13:35.035Z,19.47
2022-09-06T04:14:35.003Z,19.43
2022-09-06T04:15:35.000Z,19.43
2022-09-06T04:16:35.020Z,19.39
2022-09-06T04:17:34.995Z,19.32
2022-09-06T04:18:34.947Z,19.29
2022-09-06T04:19:34.946Z,19.28
2022-09-06T04:20:34.919Z,19.28
2022-09-06T04:21:34.917Z,19.25
2022-09-06T04:22:34.917Z,19.31
2022-09-06T04:23:39.253Z,19.23
2022-09-06T04:24:35.868Z,19.21
2022-09-06T04:25:34.884Z,19.24
2022-09-06T04:26:34.838Z,19.25
2022-09-06T04:27:34.869Z,19.24
2022-09-06T04:28:34.834Z,19.21
2022-09-06T04:29:34.806Z,19.21
2022-09-06T04:30:34.798Z,19.14
2022-09-06T04:31:34.842Z,19.14
2022-09-06T04:32:34.793Z,19.10
2022-09-06T04:33:34.817Z,19.10
2022-09-06T04:34:34.731Z,19.08
2022-09-06T04:35:34.723Z,19.10
2022-09-06T04:36:34.700Z,19.08
2022-09-06T04:37:34.724Z,19.05
2022-09-06T04:38:34.680Z,19.02
2022-09-06T04:39:34.740Z,18.99
2022-09-06T04:40:34.657Z,19.01
2022-09-06T04:41:34.644Z,18.97
2022-09-06T04:42:34.662Z,18.99
2022-09-06T04:43:34.613Z,18.98
2022-09-06T04:44:34.638Z,18.95
2022-09-06T04:45:34.609Z,18.92
2022-09-06T04:46:34.570Z,18.91
2022-09-06T04:47:34.584Z,18.91
2022-09-06T04:48:34.544Z,18.90
2022-09-06T04:49:34.534Z,18.87
2022-09-06T04:50:34.516Z,18.90
2022-09-06T04:51:34.505Z,18.87
2022-09-06T04:52:34.519Z,18.87
2022-09-06T04:53:34.484Z,18.87
2022-09-06T04:54:34.475Z,18.84
2022-09-06T04:55:34.461Z,18.87
2022-09-06T04:56:34.457Z,18.86
2022-09-06T04:57:34.447Z,18.82
2022-09-06T04:58:34.406Z,18.83
2022-09-06T04:59:34.396Z,18.80
2022-09-06T05:00:34.389Z,18.80
2022-09-06T05:01:34.460Z,18.83
2022-09-06T05:02:34.486Z,18.82
2022-09-06T05:03:34.347Z,18.79
2022-09-06T05:04:34.327Z,18.80
2022-09-06T05:05:34.316Z,18.79
2022-09-06T05:06:34.327Z,18.76
2022-09-06T05:07:34.325Z,18.76
2022-09-06T05:08:34.269Z,18.74
2022-09-06T05:09:34.270Z,18.73
2022-09-06T05:10:34.240Z,18.74
2022-09-06T05:11:34.239Z,18.74
2022-09-06T05:12:34.239Z,18.79
2022-09-06T05:13:34.207Z,18.76
2022-09-06T05:14:34.202Z,18.82
2022-09-06T05:15:34.182Z,18.80
2022-09-06T05:16:34.223Z,18.79
2022-09-06T05:17:34.180Z,18.79
2022-09-06T05:18:34.138Z,18.80
2022-09-06T05:19:34.230Z,18.79
2022-09-06T05:20:34.114Z,18.79
2022-09-06T05:21:34.102Z,18.79
2022-09-06T05:22:34.114Z,18.80
2022-09-06T05:23:34.095Z,18.80
2022-09-06T05:24:34.057Z,18.83
2022-09-06T05:25:34.043Z,18.82
2022-09-06T05:26:34.023Z,18.82
2022-09-06T05:27:34.047Z,18.83
2022-09-06T05:28:34.002Z,18.80
2022-09-06T05:29:33.992Z,18.86
2022-09-06T05:30:33.974Z,18.87
2022-09-06T05:31:34.047Z,18.86
2022-09-06T05:32:33.975Z,18.84
2022-09-06T05:33:33.946Z,18.90
2022-09-06T05:34:33.925Z,18.83
2022-09-06T05:35:33.914Z,18.86
2022-09-06T05:36:33.893Z,18.86
2022-09-06T05:37:33.931Z,18.90
2022-09-06T05:38:34.043Z,18.87
2022-09-06T05:39:33.917Z,18.87
2022-09-06T05:40:33.841Z,18.90
2022-09-06T05:41:33.835Z,18.90
2022-09-06T05:42:33.845Z,18.91
2022-09-06T05:43:33.806Z,18.92
2022-09-06T05:44:33.787Z,18.94
2022-09-06T05:45:33.841Z,18.98
2022-09-06T05:46:33.757Z,18.98
2022-09-06T05:47:33.777Z,18.99
2022-09-06T05:48:37.031Z,19.05
2022-09-06T05:49:33.718Z,19.01
2022-09-06T05:50:33.697Z,19.08
2022-09-06T05:51:33.699Z,19.08
2022-09-06T05:52:33.700Z,19.06
2022-09-06T05:53:33.676Z,19.08
2022-09-06T05:54:33.649Z,19.06
2022-09-06T05:55:33.641Z,19.10
2022-09-06T05:56:33.619Z,19.14
2022-09-06T05:57:33.640Z,19.15
2022-09-06T05:58:33.599Z,19.18
2022-09-06T05:59:33.593Z,19.20
2022-09-06T06:00:33.569Z,19.21
2022-09-06T06:01:33.597Z,19.21
2022-09-06T06:02:33.627Z,19.28
2022-09-06T06:03:33.541Z,19.31
2022-09-06T06:04:33.531Z,19.33
2022-09-06T06:05:33.545Z,19.35
2022-09-06T06:06:33.482Z,19.38
2022-09-06T06:07:33.503Z,19.36
2022-09-06T06:08:33.461Z,19.40
2022-09-06T06:09:33.450Z,19.42
2022-09-06T06:10:37.889Z,19.43
2022-09-06T06:11:34.421Z,19.47
2022-09-06T06:12:33.427Z,19.50
2022-09-06T06:13:33.403Z,19.50
2022-09-06T06:14:33.382Z,19.53
2022-09-06T06:15:33.370Z,19.58
2022-09-06T06:16:33.401Z,19.60
2022-09-06T06:17:33.373Z,19.61
2022-09-06T06:18:33.328Z,19.63
2022-09-06T06:19:33.316Z,19.61
2022-09-06T06:20:33.299Z,19.68
2022-09-06T06:21:33.307Z,19.66
2022-09-06T06:22:33.305Z,19.70
2022-09-06T06:23:33.269Z,19.73
2022-09-06T06:24:33.238Z,19.76
2022-09-06T06:25:33.257Z,19.80
2022-09-06T06:26:33.231Z,19.87
2022-09-06T06:27:33.238Z,19.87
2022-09-06T06:28:33.189Z,19.88
2022-09-06T06:29:33.180Z,19.91
2022-09-06T06:30:33.157Z,19.90
2022-09-06T06:31:33.247Z,19.90
2022-09-06T06:32:33.139Z,19.90
2022-09-06T06:33:33.160Z,19.93
2022-09-06T06:34:33.128Z,19.91
2022-09-06T06:35:35.175Z,19.97
2022-09-06T06:36:34.082Z,20.03
2022-09-06T06:37:33.070Z,20.00
2022-09-06T06:38:33.129Z,20.03
2022-09-06T06:39:33.078Z,20.06
2022-09-06T06:40:33.028Z,20.06
2022-09-06T06:41:33.014Z,20.09
2022-09-06T06:42:33.002Z,20.13
2022-09-06T06:43:33.021Z,20.16
2022-09-06T06:44:32.978Z,20.20
2022-09-06T06:45:33.008Z,20.24
2022-09-06T06:46:32.941Z,20.23
2022-09-06T06:47:32.933Z,20.25
2022-09-06T06:48:32.942Z,20.28
2022-09-06T06:51:01.132Z,20.31
2022-09-06T06:52:01.108Z,20.33
2022-09-06T06:53:08.698Z,20.34
2022-09-06T06:54:01.100Z,20.35
2022-09-06T06:55:01.067Z,20.39
2022-09-06T06:56:01.058Z,20.41
2022-09-06T06:57:01.068Z,20.41
2022-09-06T06:58:01.027Z,20.47
2022-09-06T06:59:01.029Z,20.46
2022-09-06T07:00:01.009Z,20.51
2022-09-06T07:01:01.074Z,20.56
2022-09-06T07:02:01.093Z,20.56
2022-09-06T07:03:00.965Z,20.64
2022-09-06T07:04:00.951Z,20.65
2022-09-06T07:05:01.000Z,20.68
2022-09-06T07:06:16.146Z,20.71
2022-09-06T07:08:01.892Z,20.80
2022-09-06T07:09:00.891Z,20.83
2022-09-06T07:11:01.852Z,20.87
2022-09-06T07:12:00.832Z,20.90
2022-09-06T07:13:00.852Z,20.91
2022-09-06T07:14:00.811Z,20.96
2022-09-06T07:15:00.800Z,20.99
2022-09-06T07:16:00.800Z,21.05
2022-09-06T07:17:00.792Z,21.13
2022-09-06T07:18:00.781Z,21.11
2022-09-06T07:19:00.850Z,21.14
2022-09-06T07:20:16.523Z,21.20
2022-09-06T07:22:04.576Z,21.27
2022-09-06T07:25:00.672Z,21.35
2022-09-06T07:26:00.647Z,21.36
2022-09-06T07:28:05.663Z,21.41
2022-09-06T07:29:00.617Z,21.44
2022-09-06T07:30:00.597Z,21.50
2022-09-06T07:31:00.635Z,21.53
2022-09-06T07:32:15.989Z,21.54
2022-09-06T07:33:01.597Z,21.60
2022-09-06T07:34:00.567Z,21.60
2022-09-06T07:35:00.538Z,21.64
2022-09-06T07:36:00.527Z,21.64
2022-09-06T07:37:00.509Z,21.71
2022-09-06T07:38:00.521Z,21.72
2022-09-06T07:39:00.481Z,21.76
2022-09-06T07:40:00.560Z,21.82
2022-09-06T07:41:00.467Z,21.81
2022-09-06T07:42:00.448Z,21.85
2022-09-06T07:43:00.472Z,21.90
2022-09-06T07:44:00.410Z,21.94
2022-09-06T07:45:00.400Z,21.94
2022-09-06T07:46:00.397Z,21.99
2022-09-06T07:48:01.385Z,22.06
2022-09-06T07:49:00.350Z,22.09
2022-09-06T07:51:01.320Z,22.16
2022-09-06T07:52:00.322Z,22.17
2022-09-06T07:53:09.583Z,22.17
2022-09-06T07:54:26.141Z,22.19
2022-09-06T07:55:01.253Z,22.20
2022-09-06T07:57:17.581Z,22.31
2022-09-06T07:58:17.533Z,22.34
2022-09-06T07:59:17.529Z,22.38
2022-09-06T08:00:17.513Z,22.43
2022-09-06T08:01:17.646Z,22.50
2022-09-06T08:02:17.539Z,22.57
2022-09-06T08:03:17.483Z,22.64
2022-09-06T08:04:17.465Z,22.69
2022-09-06T08:06:18.424Z,22.78
2022-09-06T08:09:18.394Z,22.90
2022-09-06T08:10:18.725Z,22.94
2022-09-06T08:11:17.373Z,22.97
2022-09-06T08:12:25.260Z,22.97
2022-09-06T08:13:17.345Z,22.97
2022-09-06T08:14:24.494Z,22.96
2022-09-06T08:15:17.325Z,23.02
2022-09-06T08:16:25.030Z,23.04
2022-09-06T08:18:53.548Z,23.09
2022-09-06T08:21:35.815Z,23.20
2022-09-06T08:22:35.800Z,23.22
2022-09-06T08:23:35.768Z,23.29
2022-09-06T08:24:35.769Z,23.38
2022-09-06T08:25:35.738Z,23.42
2022-09-06T08:26:35.748Z,23.49
2022-09-06T08:27:35.707Z,23.52
2022-09-06T08:28:35.694Z,23.60
2022-09-06T08:29:35.685Z,23.65
2022-09-06T08:30:35.670Z,23.70
2022-09-06T08:31:35.752Z,23.75
2022-09-06T08:32:35.647Z,23.77
2022-09-06T08:33:43.270Z,23.76
2022-09-06T08:34:35.613Z,23.79
2022-09-06T08:35:35.608Z,23.83
2022-09-06T08:36:35.613Z,23.80
2022-09-06T08:37:35.590Z,23.82
2022-09-06T08:38:44.186Z,23.83
2022-09-06T08:39:35.616Z,23.94
2022-09-06T08:40:35.534Z,23.97
2022-09-06T08:41:35.568Z,24.02
2022-09-06T08:42:35.505Z,24.02
2022-09-06T08:43:43.058Z,24.02
2022-09-06T08:45:36.477Z,24.10
2022-09-06T08:46:35.517Z,24.14
2022-09-06T08:47:35.452Z,24.19
2022-09-06T08:48:35.430Z,24.22
2022-09-06T08:49:35.420Z,24.23
2022-09-06T08:50:35.401Z,24.23
2022-09-06T08:53:25.058Z,24.23
2022-09-06T08:54:32.461Z,24.23
2022-09-06T08:55:25.004Z,24.26
2022-09-06T08:56:25.012Z,24.32
2022-09-06T08:57:24.974Z,24.39
2022-09-06T08:58:24.969Z,24.45
2022-09-06T08:59:24.955Z,24.53
2022-09-06T09:00:25.020Z,24.57
2022-09-06T09:01:24.953Z,24.61
2022-09-06T09:02:24.999Z,24.64
2022-09-06T09:03:24.896Z,24.69
2022-09-06T09:04:24.878Z,24.69
2022-09-06T09:05:24.869Z,24.76
2022-09-06T09:06:24.853Z,24.79
2022-09-06T09:07:24.873Z,24.85
2022-09-06T09:08:24.828Z,24.87
2022-09-06T09:09:24.819Z,24.88
2022-09-06T09:11:42.306Z,24.97
2022-09-06T09:14:12.544Z,24.98
2022-09-06T09:15:12.531Z,25.00
2022-09-06T09:16:12.558Z,25.02
2022-09-06T09:17:20.452Z,25.01
2022-09-06T09:18:12.486Z,25.07
2022-09-06T09:19:12.469Z,25.10
2022-09-06T09:20:12.464Z,25.15
2022-09-06T09:21:19.576Z,25.15
2022-09-06T09:22:12.437Z,25.15
2022-09-06T09:23:12.417Z,25.16
2022-09-06T09:24:12.407Z,25.20
2022-09-06T09:25:19.952Z,25.24
2022-09-06T09:26:12.412Z,25.31
2022-09-06T09:27:12.363Z,25.34
2022-09-06T09:28:12.381Z,25.42
2022-09-06T09:29:12.333Z,25.43
2022-09-06T09:31:13.393Z,25.50
2022-09-06T09:32:12.302Z,25.53
2022-09-06T09:33:12.284Z,25.54
2022-09-06T09:35:29.609Z,25.59
2022-09-06T09:36:29.621Z,25.62
2022-09-06T09:38:30.573Z,25.69
2022-09-06T09:41:01.787Z,25.75
2022-09-06T09:42:01.775Z,25.80
2022-09-06T09:43:01.746Z,25.83
2022-09-06T09:44:04.758Z,25.90
2022-09-06T09:45:01.726Z,25.86
2022-09-06T09:46:01.708Z,25.82
2022-09-06T09:47:01.788Z,25.72
2022-09-06T09:48:01.678Z,25.74
2022-09-06T09:49:01.678Z,25.83
2022-09-06T09:50:01.668Z,25.84
2022-09-06T09:51:01.648Z,25.93
2022-09-06T09:52:01.652Z,25.93
2022-09-06T09:53:01.634Z,25.99
2022-09-06T09:54:01.600Z,26.04
2022-09-06T09:55:01.589Z,26.05
2022-09-06T09:57:30.851Z,26.21
2022-09-06T09:58:30.801Z,26.27
2022-09-06T09:59:30.795Z,26.32
2022-09-06T10:00:30.812Z,26.40
2022-09-06T10:01:30.796Z,26.44
2022-09-06T10:02:30.753Z,26.52
2022-09-06T10:03:31.257Z,26.55
2022-09-06T10:04:46.111Z,26.54
2022-09-06T10:05:31.918Z,26.52
2022-09-06T10:07:31.687Z,26.59
2022-09-06T10:08:30.681Z,26.59
2022-09-06T10:09:30.674Z,26.61
2022-09-06T10:10:30.654Z,26.64
2022-09-06T10:11:30.635Z,26.62
2022-09-06T10:12:30.645Z,26.69
2022-09-06T10:13:37.726Z,26.65
2022-09-06T10:14:30.598Z,26.59
2022-09-06T10:18:05.136Z,26.72
2022-09-06T10:19:05.124Z,26.72
2022-09-06T10:20:05.076Z,26.74
2022-09-06T10:21:05.087Z,26.77
2022-09-06T10:25:25.011Z,26.76
2022-09-06T10:26:32.584Z,26.81
2022-09-06T10:27:24.955Z,26.87
2022-09-06T10:29:42.683Z,26.68
2022-09-06T10:30:42.691Z,26.73
2022-09-06T10:31:42.722Z,26.81
2022-09-06T10:32:42.662Z,26.95
2022-09-06T10:33:42.635Z,27.14
2022-09-06T10:36:21.143Z,27.98
2022-09-06T10:38:39.401Z,29.29
2022-09-06T10:39:39.403Z,29.94
2022-09-06T10:40:39.382Z,30.38
2022-09-06T10:41:39.374Z,30.90
2022-09-06T10:42:39.340Z,31.45
2022-09-06T10:43:39.325Z,32.03
2022-09-06T10:44:39.316Z,32.40
2022-09-06T10:45:39.296Z,32.74
2022-09-06T10:46:39.360Z,32.95
2022-09-06T10:47:39.272Z,33.19
2022-09-06T10:48:39.265Z,33.45
2022-09-06T10:49:39.247Z,33.63
2022-09-06T10:50:39.237Z,33.73
2022-09-06T10:51:39.237Z,34.05
2022-09-06T10:52:39.227Z,34.29
2022-09-06T10:53:39.198Z,34.11
2022-09-06T10:54:39.178Z,34.05
2022-09-06T10:55:39.168Z,33.48
2022-09-06T10:56:39.181Z,33.90
2022-09-06T10:59:40.131Z,34.48
2022-09-06T11:00:39.111Z,34.73
2022-09-06T11:01:39.278Z,34.84
2022-09-06T11:02:39.287Z,35.03
2022-09-06T11:03:57.016Z,35.29
2022-09-06T11:05:40.210Z,35.44
2022-09-06T11:06:39.067Z,35.39
2022-09-06T11:07:39.459Z,35.54
2022-09-06T11:08:46.709Z,35.57
2022-09-06T11:11:41.048Z,35.95
2022-09-06T11:14:05.662Z,34.38
2022-09-06T11:15:02.918Z,34.69
2022-09-06T11:16:10.081Z,34.80
2022-09-06T11:17:02.888Z,35.15
2022-09-06T11:18:02.881Z,35.23
2022-09-06T11:19:02.864Z,34.80
2022-09-06T11:20:10.643Z,34.81
2022-09-06T11:21:02.860Z,35.30
2022-09-06T11:22:02.833Z,35.50
2022-09-06T11:23:02.819Z,35.52
2022-09-06T11:24:02.839Z,35.88
2022-09-06T11:25:11.338Z,36.00
2022-09-06T11:26:02.802Z,36.27
2022-09-06T11:27:02.764Z,36.07
2022-09-06T11:28:02.752Z,36.27
2022-09-06T11:29:02.745Z,36.35
2022-09-06T11:30:02.757Z,36.63
2022-09-06T11:32:30.847Z,35.66
2022-09-06T11:33:30.810Z,35.70
2022-09-06T11:36:05.696Z,35.79
2022-09-06T11:37:05.670Z,36.01
2022-09-06T11:38:05.648Z,36.08
2022-09-06T11:39:05.639Z,36.30
2022-09-06T11:40:28.936Z,35.82
2022-09-06T11:41:08.146Z,36.08
2022-09-06T11:42:05.606Z,36.12
2022-09-06T11:43:05.603Z,36.45
2022-09-06T11:44:05.580Z,36.75
2022-09-06T11:45:05.560Z,35.51
2022-09-06T11:46:24.161Z,34.51
2022-09-06T11:47:05.534Z,34.20
2022-09-06T11:48:05.532Z,34.05
2022-09-06T11:49:05.516Z,34.54
2022-09-06T11:50:05.505Z,35.06
2022-09-06T11:51:05.515Z,35.50
2022-09-06T11:52:05.486Z,35.02
2022-09-06T11:53:05.476Z,35.52
2022-09-06T11:54:05.465Z,35.88
2022-09-06T11:55:05.450Z,35.64
2022-09-06T11:56:05.466Z,35.91
2022-09-06T11:57:05.418Z,36.23
2022-09-06T11:58:05.418Z,36.39
2022-09-06T11:59:05.399Z,36.61
2022-09-06T12:00:05.417Z,36.75
2022-09-06T12:01:05.380Z,36.58
2022-09-06T12:02:13.480Z,36.52
2022-09-06T12:04:07.625Z,36.43
2022-09-06T12:05:05.333Z,36.14
2022-09-06T12:06:05.350Z,35.82
2022-09-06T12:07:05.314Z,36.08
2022-09-06T12:09:40.775Z,35.58
2022-09-06T12:10:40.791Z,35.36
2022-09-06T12:11:40.742Z,35.28
2022-09-06T12:12:40.742Z,35.45
2022-09-06T12:13:48.776Z,35.42
2022-09-06T12:16:11.730Z,35.08
2022-09-06T12:17:11.600Z,34.96
2022-09-06T12:18:11.580Z,34.69
2022-09-06T12:19:11.552Z,34.34
2022-09-06T12:20:11.588Z,34.60
2022-09-06T12:21:11.550Z,34.64
2022-09-06T12:22:11.529Z,34.45
2022-09-06T12:23:19.090Z,33.78
2022-09-06T12:24:11.508Z,34.16
2022-09-06T12:25:11.519Z,34.45
2022-09-06T12:26:11.489Z,34.27
2022-09-06T12:27:11.488Z,34.13
2022-09-06T12:28:11.464Z,34.05
2022-09-06T12:29:11.465Z,34.50
2022-09-06T12:30:11.450Z,34.61
2022-09-06T12:31:18.145Z,34.39
2022-09-06T12:32:12.410Z,34.22
2022-09-06T12:33:11.398Z,34.41
2022-09-06T12:34:11.386Z,34.73
2022-09-06T12:36:12.363Z,34.13
2022-09-06T12:37:11.354Z,33.39
2022-09-06T12:38:11.349Z,33.17
2022-09-06T12:39:11.325Z,33.15
2022-09-06T12:40:11.384Z,32.92
2022-09-06T12:41:11.316Z,33.14
2022-09-06T12:42:11.292Z,33.10
2022-09-06T12:43:11.282Z,33.30
2022-09-06T12:44:11.283Z,33.31
2022-09-06T12:45:11.278Z,33.46
2022-09-06T12:46:11.446Z,33.55
2022-09-06T12:47:11.237Z,33.27
2022-09-06T12:48:11.228Z,32.92
2022-09-06T12:49:11.200Z,32.95
2022-09-06T12:50:18.379Z,32.89
2022-09-06T12:52:40.873Z,32.03
2022-09-06T12:53:40.854Z,31.85
2022-09-06T12:54:40.845Z,31.61
2022-09-06T12:55:40.860Z,31.91
2022-09-06T12:56:40.815Z,32.10
2022-09-06T12:57:40.917Z,32.02
2022-09-06T12:58:40.797Z,32.07
2022-09-06T12:59:40.777Z,32.13
2022-09-06T13:00:40.796Z,32.10
2022-09-06T13:01:40.833Z,31.85
2022-09-06T13:02:40.823Z,31.68
2022-09-06T13:03:40.749Z,31.53
2022-09-06T13:04:40.735Z,31.49
2022-09-06T13:05:40.728Z,31.61
2022-09-06T13:06:40.700Z,31.68
2022-09-06T13:07:40.680Z,31.82
2022-09-06T13:08:40.685Z,31.75
2022-09-06T13:12:36.972Z,31.64
2022-09-06T13:14:58.850Z,31.35
2022-09-06T13:15:58.907Z,31.28
2022-09-06T13:16:58.818Z,31.28
2022-09-06T13:18:07.387Z,31.12
2022-09-06T13:20:27.142Z,31.23
2022-09-06T13:21:34.676Z,31.15
2022-09-06T13:22:27.093Z,31.26
2022-09-06T13:23:27.074Z,31.33
2022-09-06T13:24:27.065Z,31.40
2022-09-06T13:25:27.073Z,31.28
2022-09-06T13:26:27.043Z,31.39
2022-09-06T13:27:27.030Z,31.45
2022-09-06T13:30:34.507Z,31.28
2022-09-06T13:31:34.525Z,31.30
2022-09-06T13:32:34.457Z,31.38
2022-09-06T13:33:42.047Z,31.33
2022-09-06T13:34:34.436Z,31.36
2022-09-06T13:35:34.458Z,31.38
2022-09-06T13:36:34.407Z,31.46
2022-09-06T13:37:34.399Z,31.46
2022-09-06T13:42:07.239Z,31.05
2022-09-06T13:44:25.688Z,31.17
2022-09-06T13:45:25.694Z,31.23
2022-09-06T13:46:25.740Z,31.30
2022-09-06T13:47:25.639Z,31.40
2022-09-06T13:48:29.382Z,31.46
2022-09-06T13:49:25.629Z,31.53
2022-09-06T13:56:05.829Z,31.33
2022-09-06T13:57:05.809Z,31.27
2022-09-06T13:58:13.330Z,31.36
2022-09-06T13:59:05.778Z,31.49
2022-09-06T14:00:05.752Z,31.53
2022-09-06T14:01:17.752Z,31.54
2022-09-06T14:03:37.134Z,31.53
2022-09-06T14:04:37.126Z,31.45
2022-09-06T14:05:37.136Z,31.50
2022-09-06T14:06:37.199Z,31.53
2022-09-06T14:07:37.088Z,31.54
2022-09-06T14:09:02.930Z,31.58